This is the latest recevied weather packets stored in our database for station/object EA4BCR. If no packets are shown the sender has not sent any weather packets the latest 10 day(s).
| Time | Temp. | Humidity | Pressure | Rain* | Wind** | Luminosity | Snow |
|---|---|---|---|---|---|---|---|
| 1788076217 | 18.33° C | 44% | 1018.7 hPa | - | - | - | - |
| 1788075617 | 17.78° C | 45% | 1018.9 hPa | - | - | - | - |
| 1788075017 | 17.22° C | 47% | 1019.1 hPa | - | - | - | - |
| 1788074418 | 16.11° C | 47% | 1019.4 hPa | - | - | - | - |
| 1788073817 | 15.56° C | 44% | 1019.6 hPa | - | - | - | - |
| 1788073217 | 15° C | 46% | 1019.9 hPa | - | - | - | - |
| 1788072617 | 14.44° C | 49% | 1020.1 hPa | - | - | - | - |
| 1788072017 | 13.89° C | 47% | 1020.3 hPa | - | - | - | - |
| 1788071417 | 13.89° C | 48% | 1020.5 hPa | - | - | - | - |
| 1788070818 | 12.78° C | 49% | 1020.6 hPa | - | - | - | - |
| 1788070217 | 12.78° C | 49% | 1020.7 hPa | - | - | - | - |
| 1788069617 | 12.22° C | 50% | 1020.9 hPa | - | - | - | - |
| 1788069017 | 12.22° C | 50% | 1020.9 hPa | - | - | - | - |
| 1788068417 | 12.22° C | 49% | 1020.8 hPa | - | - | - | - |
| 1788067817 | 12.22° C | 48% | 1020.7 hPa | - | - | - | - |
| 1788067217 | 12.78° C | 48% | 1020.5 hPa | - | - | - | - |
| 1788066617 | 12.78° C | 47% | 1020.4 hPa | - | - | - | - |
| 1788066017 | 12.78° C | 48% | 1020.4 hPa | - | - | - | - |
| 1788065417 | 12.78° C | 47% | 1020.3 hPa | - | - | - | - |
| 1788064817 | 12.78° C | 48% | 1020.3 hPa | - | - | - | - |
| 1788064218 | 12.78° C | 46% | 1020.3 hPa | - | - | - | - |
| 1788063617 | 12.78° C | 47% | 1020.4 hPa | - | - | - | - |
| 1788063017 | 13.33° C | 46% | 1020.2 hPa | - | - | - | - |
| 1788062417 | 13.33° C | 46% | 1020 hPa | - | - | - | - |
| 1788061817 | 13.33° C | 46% | 1020.1 hPa | - | - | - | - |
* Rain since midnight (hover to see other rain measurements)
** Current wind speed in m/s (hover to see current wind gust speed)